Time;durP1;ratioP1;P1;durP2;ratioP2;P2;SDS_P1;SDS_P2;PMS_P1;PMS_P2;Temp;Humidity;BMP_temperature;BMP_pressure;BME280_temperature;BME280_humidity;BME280_pressure;Samples;Min_cycle;Max_cycle;Signal;HPM_P1;HPM_P2
2023/09/11 00:01:48;;;;;;;10.00;5.30;;;;;;;;;;4994584;28;20042;-66
2023/09/11 00:04:13;;;;;;;11.57;6.13;;;;;;;;;;4997385;28;20161;-66
2023/09/11 00:06:39;;;;;;;7.38;5.32;;;;;;;;;;4993058;28;20128;-66
2023/09/11 00:09:04;;;;;;;11.75;5.70;;;;;;;;;;4994615;28;20117;-66
2023/09/11 00:11:30;;;;;;;10.25;5.90;;;;;;;;;;4999182;28;20041;-66
2023/09/11 00:13:55;;;;;;;11.93;5.70;;;;;;;;;;4997863;28;20129;-66
2023/09/11 00:16:20;;;;;;;10.60;5.57;;;;;;;;;;4992763;28;20073;-66
2023/09/11 00:18:46;;;;;;;9.40;6.03;;;;;;;;;;4991772;28;20420;-66
2023/09/11 00:21:12;;;;;;;9.95;5.88;;;;;;;;;;4998841;28;20117;-66
2023/09/11 00:23:37;;;;;;;11.23;6.57;;;;;;;;;;4980056;28;20451;-66
2023/09/11 00:26:02;;;;;;;13.23;6.25;;;;;;;;;;4986003;28;20022;-66
2023/09/11 00:28:28;;;;;;;10.45;6.28;;;;;;;;;;4985633;28;20088;-66
2023/09/11 00:30:58;;;;;;;14.25;6.88;;;;;;;;;;4994369;28;20038;-66
2023/09/11 00:33:24;;;;;;;19.88;7.07;;;;;;;;;;4988268;28;20042;-66
2023/09/11 00:35:49;;;;;;;14.57;6.90;;;;;;;;;;4995754;28;20084;-66
2023/09/11 00:38:14;;;;;;;16.17;6.47;;;;;;;;;;4989618;28;20036;-66
2023/09/11 00:40:40;;;;;;;11.27;6.40;;;;;;;;;;4990338;28;20058;-66
2023/09/11 00:43:05;;;;;;;15.25;6.90;;;;;;;;;;4992784;28;20512;-66
2023/09/11 00:45:31;;;;;;;12.00;6.20;;;;;;;;;;4998577;28;20427;-66
2023/09/11 00:47:56;;;;;;;11.75;6.13;;;;;;;;;;4998242;28;20432;-66
2023/09/11 00:50:22;;;;;;;10.77;6.70;;;;;;;;;;4992149;28;20034;-66
2023/09/11 00:52:48;;;;;;;10.30;6.20;;;;;;;;;;4992470;28;20030;-66
2023/09/11 00:55:14;;;;;;;11.77;6.80;;;;;;;;;;4981008;28;20582;-66
2023/09/11 00:57:42;;;;;;;10.95;7.57;;;;;;;;;;4990582;28;20132;-66
2023/09/11 01:00:08;;;;;;;11.45;6.78;;;;;;;;;;4993119;28;20100;-66
2023/09/11 01:02:34;;;;;;;13.85;6.90;;;;;;;;;;4993624;28;20034;-66
2023/09/11 01:05:00;;;;;;;10.40;7.07;;;;;;;;;;4998569;28;20034;-67
2023/09/11 01:07:25;;;;;;;14.40;6.68;;;;;;;;;;4996375;28;20030;-66
2023/09/11 01:09:51;;;;;;;10.13;6.40;;;;;;;;;;4992355;28;20056;-66
2023/09/11 01:12:16;;;;;;;12.85;6.63;;;;;;;;;;4993928;28;20049;-66
2023/09/11 01:14:42;;;;;;;11.85;6.50;;;;;;;;;;5002265;28;20041;-66
2023/09/11 01:17:25;;;;;;;11.73;7.00;;;;;;;;;;5003086;28;20480;-66
2023/09/11 01:19:50;;;;;;;;;;;;;;;;;;4984778;28;20080;-66
2023/09/11 01:22:26;;;;;;;10.57;5.97;;;;;;;;;;4992191;28;20304;-66
2023/09/11 01:25:10;;;;;;;10.30;6.47;;;;;;;;;;4995575;28;20372;-66
2023/09/11 01:28:33;;;;;;;11.43;6.90;;;;;;;;;;4999576;28;20046;-66
2023/09/11 01:30:59;;;;;;;13.02;6.70;;;;;;;;;;4986186;28;20053;-66
2023/09/11 01:33:24;;;;;;;11.02;6.20;;;;;;;;;;5005143;28;20037;-66
2023/09/11 01:35:51;;;;;;;13.38;6.88;;;;;;;;;;5009034;28;20056;-67
2023/09/11 01:38:17;;;;;;;9.05;5.75;;;;;;;;;;5003167;28;20034;-66
2023/09/11 01:40:45;;;;;;;11.77;6.72;;;;;;;;;;4986557;28;20113;-66
2023/09/11 01:43:12;;;;;;;13.10;6.82;;;;;;;;;;4988754;28;20046;-66
2023/09/11 01:45:40;;;;;;;13.48;7.40;;;;;;;;;;4988537;28;20072;-66
2023/09/11 01:48:08;;;;;;;13.23;7.15;;;;;;;;;;4988346;28;20108;-66
2023/09/11 01:50:35;;;;;;;10.80;7.15;;;;;;;;;;4989054;28;20030;-66
2023/09/11 01:53:02;;;;;;;14.27;7.40;;;;;;;;;;5010986;28;20115;-66
2023/09/11 01:55:28;;;;;;;15.32;7.50;;;;;;;;;;4992170;28;20125;-66
2023/09/11 01:57:54;;;;;;;12.30;7.20;;;;;;;;;;4988440;28;20041;-66
2023/09/11 02:00:20;;;;;;;12.85;7.30;;;;;;;;;;4986735;28;20476;-66
2023/09/11 02:02:51;;;;;;;13.30;7.32;;;;;;;;;;4988276;28;20041;-66
2023/09/11 02:05:17;;;;;;;13.88;7.45;;;;;;;;;;4988754;28;20087;-66
2023/09/11 02:07:42;;;;;;;10.27;7.25;;;;;;;;;;4988187;28;20031;-66
2023/09/11 02:10:09;;;;;;;14.60;6.93;;;;;;;;;;4987885;28;20036;-66
2023/09/11 02:12:34;;;;;;;11.48;6.65;;;;;;;;;;4987791;28;20034;-66
2023/09/11 02:14:59;;;;;;;11.40;6.78;;;;;;;;;;4986668;28;20152;-66
2023/09/11 02:17:25;;;;;;;10.40;7.13;;;;;;;;;;4981691;28;20018;-66
2023/09/11 02:19:50;;;;;;;9.27;6.90;;;;;;;;;;4981726;28;20061;-66
2023/09/11 02:22:16;;;;;;;11.05;6.72;;;;;;;;;;4987779;28;20173;-66
2023/09/11 02:24:41;;;;;;;12.70;7.07;;;;;;;;;;4987144;28;20058;-66
2023/09/11 02:27:07;;;;;;;8.95;6.60;;;;;;;;;;4975686;28;20034;-66
2023/09/11 02:29:32;;;;;;;11.15;6.40;;;;;;;;;;4988624;28;20026;-66
2023/09/11 02:31:57;;;;;;;13.07;7.47;;;;;;;;;;4974669;28;20416;-67
2023/09/11 02:34:23;;;;;;;11.60;7.13;;;;;;;;;;4987509;28;20060;-66
2023/09/11 02:36:48;;;;;;;12.38;7.50;;;;;;;;;;4996106;28;20053;-66
2023/09/11 02:39:13;;;;;;;14.88;7.68;;;;;;;;;;4985330;28;20542;-66
2023/09/11 02:41:39;;;;;;;14.07;6.88;;;;;;;;;;4987415;28;20050;-66
2023/09/11 02:44:05;;;;;;;11.15;6.68;;;;;;;;;;4990857;28;20022;-66
2023/09/11 02:46:30;;;;;;;10.55;7.40;;;;;;;;;;4991215;28;20100;-66
2023/09/11 02:48:55;;;;;;;10.63;6.97;;;;;;;;;;4980664;28;20034;-67
2023/09/11 02:51:21;;;;;;;11.55;7.55;;;;;;;;;;4977918;28;20093;-67
2023/09/11 02:53:46;;;;;;;11.88;7.22;;;;;;;;;;4983555;28;20177;-66
2023/09/11 02:56:11;;;;;;;11.35;7.05;;;;;;;;;;4987409;28;20477;-66
2023/09/11 02:58:37;;;;;;;14.90;7.57;;;;;;;;;;4986894;28;20046;-66
2023/09/11 03:01:03;;;;;;;13.93;7.78;;;;;;;;;;4984672;28;20053;-66
2023/09/11 03:03:29;;;;;;;11.55;7.28;;;;;;;;;;4988462;28;20095;-66
2023/09/11 03:05:59;;;;;;;11.77;6.97;;;;;;;;;;4987202;28;20117;-66
2023/09/11 03:08:24;;;;;;;13.30;7.28;;;;;;;;;;4987165;28;20575;-66
2023/09/11 03:10:50;;;;;;;12.25;7.43;;;;;;;;;;4987181;28;20043;-66
2023/09/11 03:13:15;;;;;;;13.82;7.45;;;;;;;;;;4986928;28;20569;-66
2023/09/11 03:15:42;;;;;;;16.77;7.30;;;;;;;;;;4986694;28;20043;-66
2023/09/11 03:18:08;;;;;;;13.18;8.00;;;;;;;;;;4986663;28;20572;-66
2023/09/11 03:20:33;;;;;;;12.65;7.50;;;;;;;;;;4985404;28;20125;-66
2023/09/11 03:22:59;;;;;;;15.82;8.80;;;;;;;;;;4986553;28;20049;-66
2023/09/11 03:25:26;;;;;;;14.32;8.27;;;;;;;;;;4986272;28;20121;-66
2023/09/11 03:27:52;;;;;;;13.25;7.68;;;;;;;;;;4986801;28;20042;-66
2023/09/11 03:30:17;;;;;;;13.10;8.15;;;;;;;;;;4984722;28;20053;-66
2023/09/11 03:32:42;;;;;;;13.70;7.82;;;;;;;;;;4985301;28;20049;-66
2023/09/11 03:35:08;;;;;;;13.00;8.23;;;;;;;;;;4985970;28;20042;-66
2023/09/11 03:37:33;;;;;;;14.63;7.65;;;;;;;;;;4992993;28;20132;-66
2023/09/11 03:39:59;;;;;;;13.93;7.78;;;;;;;;;;4989085;28;20058;-66
2023/09/11 03:42:24;;;;;;;13.10;7.65;;;;;;;;;;4996938;28;20041;-66
2023/09/11 03:44:50;;;;;;;19.15;8.77;;;;;;;;;;4980448;28;20118;-66
2023/09/11 03:47:15;;;;;;;13.75;7.88;;;;;;;;;;4999578;28;20037;-66
2023/09/11 03:49:40;;;;;;;14.23;8.38;;;;;;;;;;4993466;28;20065;-66
2023/09/11 03:52:06;;;;;;;13.23;8.35;;;;;;;;;;4991134;28;20045;-66
2023/09/11 03:54:31;;;;;;;13.85;8.32;;;;;;;;;;4993209;28;20129;-66
2023/09/11 03:56:57;;;;;;;15.95;8.73;;;;;;;;;;4993561;28;20096;-66
2023/09/11 03:59:22;;;;;;;17.35;8.57;;;;;;;;;;4998140;28;20038;-66
2023/09/11 04:01:47;;;;;;;13.48;8.45;;;;;;;;;;4999083;28;20038;-66
2023/09/11 04:04:13;;;;;;;14.20;8.35;;;;;;;;;;5001157;28;20544;-66
2023/09/11 04:06:38;;;;;;;14.63;8.70;;;;;;;;;;4999459;28;20104;-66
2023/09/11 04:09:05;;;;;;;15.55;9.20;;;;;;;;;;4984914;28;20042;-66
2023/09/11 04:11:31;;;;;;;14.50;8.57;;;;;;;;;;4985292;28;20031;-66
2023/09/11 04:13:56;;;;;;;21.65;9.70;;;;;;;;;;5000789;28;20039;-66
2023/09/11 04:16:22;;;;;;;14.63;9.05;;;;;;;;;;5004504;28;20825;-66
2023/09/11 04:18:47;;;;;;;13.13;9.13;;;;;;;;;;5001232;28;20065;-66
2023/09/11 04:21:13;;;;;;;16.23;9.60;;;;;;;;;;4999112;28;20137;-66
2023/09/11 04:23:38;;;;;;;20.55;10.15;;;;;;;;;;4996103;28;20057;-66
2023/09/11 04:26:03;;;;;;;15.52;8.75;;;;;;;;;;4990038;28;20041;-66
2023/09/11 04:28:29;;;;;;;15.98;9.20;;;;;;;;;;4997637;28;20077;-66
2023/09/11 04:30:54;;;;;;;15.30;9.48;;;;;;;;;;4988405;28;20520;-66
2023/09/11 04:33:20;;;;;;;13.93;8.90;;;;;;;;;;4998813;28;20038;-66
2023/09/11 04:35:45;;;;;;;15.68;9.73;;;;;;;;;;4996411;28;20060;-65
2023/09/11 04:38:11;;;;;;;16.38;9.35;;;;;;;;;;4998948;28;20042;-66
2023/09/11 04:40:36;;;;;;;16.65;9.40;;;;;;;;;;4985197;28;20842;-66
2023/09/11 04:43:02;;;;;;;14.73;9.73;;;;;;;;;;4994007;28;20084;-66
2023/09/11 04:45:27;;;;;;;17.35;9.40;;;;;;;;;;4991902;28;20041;-66
2023/09/11 04:47:53;;;;;;;13.77;9.50;;;;;;;;;;4991074;28;20026;-66
2023/09/11 04:50:18;;;;;;;18.15;9.73;;;;;;;;;;5001217;28;20496;-66
2023/09/11 04:52:44;;;;;;;17.83;9.20;;;;;;;;;;4998768;28;20041;-66
2023/09/11 04:55:09;;;;;;;19.27;9.93;;;;;;;;;;4997833;28;20046;-66
2023/09/11 04:57:36;;;;;;;17.55;9.57;;;;;;;;;;4992278;28;20044;-66
2023/09/11 05:00:06;;;;;;;16.55;9.55;;;;;;;;;;4991543;28;20042;-66
2023/09/11 05:02:31;;;;;;;17.98;10.65;;;;;;;;;;4999504;28;20030;-66
2023/09/11 05:04:56;;;;;;;15.82;9.77;;;;;;;;;;5001963;28;20045;-66
2023/09/11 05:07:22;;;;;;;14.20;9.55;;;;;;;;;;4996932;28;20551;-66
2023/09/11 05:09:47;;;;;;;15.75;10.02;;;;;;;;;;4996216;28;20806;-66
2023/09/11 05:12:12;;;;;;;18.23;10.43;;;;;;;;;;5000335;28;20472;-66
2023/09/11 05:14:38;;;;;;;18.58;9.43;;;;;;;;;;5002383;28;20026;-66
2023/09/11 05:17:03;;;;;;;19.95;10.48;;;;;;;;;;4998270;28;20025;-66
2023/09/11 05:19:28;;;;;;;19.40;11.13;;;;;;;;;;4994643;28;20043;-66
2023/09/11 05:21:54;;;;;;;17.63;10.85;;;;;;;;;;4999539;28;20066;-66
2023/09/11 05:24:19;;;;;;;17.88;10.00;;;;;;;;;;5002320;28;20319;-66
2023/09/11 05:26:44;;;;;;;18.80;10.70;;;;;;;;;;4982407;28;20022;-66
2023/09/11 05:29:10;;;;;;;17.85;10.20;;;;;;;;;;4995935;28;20030;-66
2023/09/11 05:31:35;;;;;;;18.17;10.48;;;;;;;;;;4995502;28;20041;-66
2023/09/11 05:34:00;;;;;;;18.05;10.43;;;;;;;;;;4998550;28;20035;-66
2023/09/11 05:36:26;;;;;;;20.60;11.43;;;;;;;;;;5001862;28;20809;-66
2023/09/11 05:38:51;;;;;;;26.65;12.30;;;;;;;;;;4999046;28;20530;-66
2023/09/11 05:41:20;;;;;;;19.65;11.45;;;;;;;;;;4996852;28;20026;-66
2023/09/11 05:43:45;;;;;;;20.92;10.88;;;;;;;;;;5002774;28;20065;-66
2023/09/11 05:46:11;;;;;;;27.77;11.93;;;;;;;;;;4982751;28;20097;-66
2023/09/11 05:48:36;;;;;;;19.60;10.73;;;;;;;;;;4983960;28;20065;-67
2023/09/11 05:51:01;;;;;;;20.65;10.68;;;;;;;;;;4987612;28;20049;-66
2023/09/11 05:53:27;;;;;;;18.63;9.77;;;;;;;;;;4992063;28;20521;-66
2023/09/11 05:55:52;;;;;;;24.02;11.15;;;;;;;;;;4992820;28;20058;-66
2023/09/11 05:58:18;;;;;;;20.92;10.70;;;;;;;;;;4995953;28;20134;-66
2023/09/11 06:00:43;;;;;;;20.70;10.20;;;;;;;;;;4993822;28;20034;-66
2023/09/11 06:03:09;;;;;;;20.42;11.57;;;;;;;;;;4983837;28;20472;-66
2023/09/11 06:05:39;;;;;;;22.40;11.25;;;;;;;;;;4993156;28;20120;-66
2023/09/11 06:08:05;;;;;;;22.60;11.70;;;;;;;;;;4995300;28;20041;-66
2023/09/11 06:10:31;;;;;;;22.75;10.30;;;;;;;;;;4999808;28;20100;-66
2023/09/11 06:12:56;;;;;;;24.30;12.40;;;;;;;;;;4988448;28;20038;-66
2023/09/11 06:15:22;;;;;;;23.52;12.10;;;;;;;;;;4995220;28;20121;-66
2023/09/11 06:17:47;;;;;;;26.50;12.70;;;;;;;;;;4992857;28;20034;-66
2023/09/11 06:20:15;;;;;;;24.80;13.50;;;;;;;;;;4991172;28;20030;-66
2023/09/11 06:22:40;;;;;;;25.70;12.80;;;;;;;;;;5000704;28;20069;-66
2023/09/11 06:25:07;;;;;;;20.88;13.27;;;;;;;;;;4989994;28;20057;-66
2023/09/11 06:27:34;;;;;;;24.60;13.63;;;;;;;;;;4994299;28;20145;-66
2023/09/11 06:30:00;;;;;;;33.63;14.57;;;;;;;;;;4997636;28;20573;-66
2023/09/11 06:32:25;;;;;;;24.65;14.38;;;;;;;;;;4982760;28;20026;-66
2023/09/11 06:34:50;;;;;;;27.33;13.27;;;;;;;;;;4971072;28;20043;-66
2023/09/11 06:37:16;;;;;;;27.85;14.00;;;;;;;;;;4978465;28;20543;-66
2023/09/11 06:39:41;;;;;;;24.05;13.55;;;;;;;;;;4972110;28;20158;-66
2023/09/11 06:42:06;;;;;;;23.75;13.60;;;;;;;;;;4981861;28;20069;-66
2023/09/11 06:44:32;;;;;;;22.92;13.52;;;;;;;;;;4984078;28;20026;-66
2023/09/11 06:46:57;;;;;;;26.30;14.57;;;;;;;;;;4984543;28;20527;-66
2023/09/11 06:49:23;;;;;;;27.42;13.93;;;;;;;;;;4998885;28;20068;-66
2023/09/11 06:51:48;;;;;;;24.85;14.73;;;;;;;;;;4995019;28;20048;-66
2023/09/11 06:54:13;;;;;;;26.75;14.32;;;;;;;;;;4989725;28;20042;-66
2023/09/11 06:56:42;;;;;;;31.95;16.02;;;;;;;;;;5008159;28;20030;-66
2023/09/11 06:59:07;;;;;;;32.38;16.52;;;;;;;;;;4990172;28;20515;-66
2023/09/11 07:01:38;;;;;;;29.35;15.88;;;;;;;;;;4975004;28;20781;-66
2023/09/11 07:04:06;;;;;;;25.23;15.20;;;;;;;;;;4975203;28;20535;-66
2023/09/11 07:06:31;;;;;;;25.15;15.52;;;;;;;;;;4980638;28;20147;-66
2023/09/11 07:08:57;;;;;;;25.33;14.48;;;;;;;;;;4992269;28;20207;-66
2023/09/11 07:11:22;;;;;;;24.85;15.20;;;;;;;;;;4988005;28;20022;-67
2023/09/11 07:13:48;;;;;;;26.17;14.85;;;;;;;;;;5000962;28;20030;-68
2023/09/11 07:16:13;;;;;;;25.92;14.82;;;;;;;;;;4978641;28;20049;-68
2023/09/11 07:18:38;;;;;;;29.20;13.95;;;;;;;;;;4974443;28;20743;-67
2023/09/11 07:21:04;;;;;;;29.35;13.52;;;;;;;;;;4983702;28;20065;-68
2023/09/11 07:23:29;;;;;;;25.65;14.13;;;;;;;;;;4994861;28;20044;-67
2023/09/11 07:25:55;;;;;;;27.60;14.50;;;;;;;;;;4988808;28;20046;-68
2023/09/11 07:28:24;;;;;;;27.10;13.75;;;;;;;;;;4998752;28;20046;-68
2023/09/11 07:30:49;;;;;;;22.00;14.15;;;;;;;;;;4989246;28;20053;-68
2023/09/11 07:33:15;;;;;;;23.90;13.65;;;;;;;;;;4998027;28;20042;-68
2023/09/11 07:35:40;;;;;;;20.50;13.15;;;;;;;;;;4977148;28;20034;-68
2023/09/11 07:38:06;;;;;;;25.92;13.27;;;;;;;;;;4976457;28;20018;-68
2023/09/11 07:40:31;;;;;;;20.83;12.73;;;;;;;;;;4981186;28;20401;-68
2023/09/11 07:42:57;;;;;;;21.98;13.52;;;;;;;;;;4990375;28;20030;-68
2023/09/11 07:45:22;;;;;;;21.63;12.60;;;;;;;;;;4995058;28;20038;-68
2023/09/11 07:47:48;;;;;;;22.65;11.63;;;;;;;;;;4994659;28;20082;-68
2023/09/11 07:50:13;;;;;;;24.67;12.90;;;;;;;;;;4993870;28;20019;-68
2023/09/11 07:52:38;;;;;;;23.30;12.65;;;;;;;;;;4999164;28;20035;-68
2023/09/11 07:55:06;;;;;;;20.55;12.25;;;;;;;;;;4985669;28;20061;-68
2023/09/11 07:57:32;;;;;;;22.65;12.13;;;;;;;;;;4991349;28;20026;-68
2023/09/11 08:00:03;;;;;;;20.88;12.68;;;;;;;;;;4993514;28;20040;-68
2023/09/11 08:02:29;;;;;;;20.33;12.38;;;;;;;;;;4998812;28;20026;-68
2023/09/11 08:04:54;;;;;;;20.35;11.90;;;;;;;;;;4998818;28;20037;-68
2023/09/11 08:07:20;;;;;;;23.70;12.82;;;;;;;;;;4987719;28;20103;-68
2023/09/11 08:09:46;;;;;;;22.83;12.15;;;;;;;;;;4973281;28;20035;-68
2023/09/11 08:12:12;;;;;;;23.73;11.90;;;;;;;;;;4983737;28;20110;-68
2023/09/11 08:14:37;;;;;;;22.90;12.35;;;;;;;;;;4984341;28;20575;-68
2023/09/11 08:17:03;;;;;;;23.77;11.98;;;;;;;;;;4982986;28;20073;-68
2023/09/11 08:19:28;;;;;;;22.27;12.32;;;;;;;;;;4984853;28;20037;-68
2023/09/11 08:21:54;;;;;;;21.73;12.05;;;;;;;;;;4993671;28;20053;-68
2023/09/11 08:24:20;;;;;;;18.00;10.65;;;;;;;;;;5002309;28;20026;-68
2023/09/11 08:26:45;;;;;;;21.63;12.68;;;;;;;;;;4987867;28;20037;-68
2023/09/11 08:29:12;;;;;;;17.02;10.15;;;;;;;;;;4976167;28;20038;-68
2023/09/11 08:31:37;;;;;;;16.27;10.23;;;;;;;;;;4974998;28;20034;-67
2023/09/11 08:34:03;;;;;;;17.90;10.88;;;;;;;;;;4995596;28;20097;-68
2023/09/11 08:36:28;;;;;;;17.90;10.60;;;;;;;;;;4999587;28;20038;-68
2023/09/11 08:38:54;;;;;;;17.05;9.10;;;;;;;;;;5002560;28;20042;-68
2023/09/11 08:41:23;;;;;;;16.85;8.73;;;;;;;;;;5002209;28;20033;-68
2023/09/11 08:43:48;;;;;;;14.02;8.75;;;;;;;;;;4998303;28;20042;-68
2023/09/11 08:46:17;;;;;;;15.85;9.43;;;;;;;;;;5000467;28;20038;-68
2023/09/11 08:48:44;;;;;;;17.42;9.18;;;;;;;;;;4975252;28;20117;-67
2023/09/11 08:51:14;;;;;;;13.50;8.55;;;;;;;;;;4976115;28;20054;-68
2023/09/11 08:53:42;;;;;;;15.00;8.55;;;;;;;;;;4981585;28;20038;-68
2023/09/11 08:56:09;;;;;;;14.85;8.57;;;;;;;;;;4992376;28;20073;-68
2023/09/11 08:58:35;;;;;;;13.80;8.25;;;;;;;;;;4994738;28;20634;-68
2023/09/11 09:01:01;;;;;;;16.88;8.07;;;;;;;;;;4999132;28;20608;-68
2023/09/11 09:03:28;;;;;;;11.95;7.80;;;;;;;;;;4986321;28;20062;-68
2023/09/11 09:05:55;;;;;;;11.70;6.68;;;;;;;;;;5000581;28;20109;-68
2023/09/11 09:08:21;;;;;;;10.43;6.95;;;;;;;;;;5003195;28;20034;-68
2023/09/11 09:10:48;;;;;;;9.98;6.65;;;;;;;;;;4997774;28;20060;-68
2023/09/11 09:13:13;;;;;;;11.68;6.57;;;;;;;;;;4995488;28;20033;-68
2023/09/11 09:15:41;;;;;;;10.45;5.75;;;;;;;;;;4997525;28;20804;-68
2023/09/11 09:18:09;;;;;;;12.68;6.80;;;;;;;;;;5001690;28;20046;-68
2023/09/11 09:20:36;;;;;;;9.55;6.85;;;;;;;;;;4991060;28;20030;-68
2023/09/11 09:23:01;;;;;;;10.95;6.38;;;;;;;;;;5003890;28;20101;-68
2023/09/11 09:25:28;;;;;;;14.88;7.45;;;;;;;;;;4993475;28;20121;-68
2023/09/11 09:27:55;;;;;;;12.48;6.80;;;;;;;;;;4981183;28;20038;-69
2023/09/11 09:30:23;;;;;;;10.50;6.55;;;;;;;;;;4985375;28;20050;-68
2023/09/11 09:32:50;;;;;;;12.23;7.35;;;;;;;;;;4999800;28;20700;-68
2023/09/11 09:35:26;;;;;;;12.43;6.72;;;;;;;;;;4986904;28;20164;-69
2023/09/11 09:37:53;;;;;;;12.60;6.85;;;;;;;;;;4993365;28;20061;-68
2023/09/11 09:40:39;;;;;;;17.10;6.72;;;;;;;;;;4993283;28;20111;-69
2023/09/11 09:43:06;;;;;;;14.15;8.27;;;;;;;;;;4990377;28;20042;-69
2023/09/11 09:45:33;;;;;;;14.35;6.35;;;;;;;;;;4990307;28;20030;-68
2023/09/11 09:48:09;;;;;;;10.27;6.60;;;;;;;;;;4987319;28;20030;-69
2023/09/11 09:50:53;;;;;;;14.07;6.38;;;;;;;;;;4995051;28;20027;-68
2023/09/11 09:53:29;;;;;;;13.55;6.90;;;;;;;;;;4998210;28;20030;-68
2023/09/11 09:55:58;;;;;;;9.65;6.38;;;;;;;;;;5000884;28;20405;-69
2023/09/11 09:58:27;;;;;;;9.30;6.22;;;;;;;;;;4988816;28;20026;-69
2023/09/11 10:01:04;;;;;;;9.00;6.10;;;;;;;;;;5003899;28;20562;-68
2023/09/11 10:03:47;;;;;;;8.70;5.68;;;;;;;;;;4994860;28;20042;-69
2023/09/11 10:06:27;;;;;;;9.50;6.30;;;;;;;;;;4998957;28;20037;-68
2023/09/11 10:09:09;;;;;;;10.63;5.57;;;;;;;;;;5004534;28;20026;-68
2023/09/11 10:11:36;;;;;;;10.15;6.50;;;;;;;;;;5003329;28;20034;-68
2023/09/11 10:14:04;;;;;;;11.43;6.03;;;;;;;;;;4990575;28;20014;-69
2023/09/11 10:16:33;;;;;;;10.23;5.32;;;;;;;;;;4988433;28;20480;-68
2023/09/11 10:19:00;;;;;;;9.82;5.20;;;;;;;;;;4997626;28;20101;-69
2023/09/11 10:21:26;;;;;;;8.15;5.40;;;;;;;;;;4994649;28;20038;-69
2023/09/11 10:23:52;;;;;;;8.70;5.45;;;;;;;;;;5006394;28;20519;-68
2023/09/11 10:26:23;;;;;;;8.57;5.50;;;;;;;;;;4993725;28;20025;-68
2023/09/11 10:28:51;;;;;;;12.10;6.40;;;;;;;;;;5001573;28;20095;-68
2023/09/11 10:31:20;;;;;;;8.45;5.47;;;;;;;;;;5004792;28;20132;-68
2023/09/11 10:33:49;;;;;;;13.63;5.82;;;;;;;;;;5002870;28;20511;-69
2023/09/11 10:36:19;;;;;;;10.43;5.43;;;;;;;;;;4983607;28;20066;-69
2023/09/11 10:38:46;;;;;;;12.60;6.40;;;;;;;;;;4987363;28;20034;-69
2023/09/11 10:41:12;;;;;;;8.77;5.60;;;;;;;;;;5000523;28;20026;-69
2023/09/11 10:43:38;;;;;;;7.78;5.70;;;;;;;;;;4993111;28;20041;-69
2023/09/11 10:46:22;;;;;;;10.63;6.30;;;;;;;;;;4978079;28;20027;-69
2023/09/11 10:48:50;;;;;;;8.90;5.78;;;;;;;;;;4989393;28;20042;-69
2023/09/11 10:51:16;;;;;;;8.65;5.78;;;;;;;;;;4999764;28;20042;-69
2023/09/11 10:53:42;;;;;;;10.77;6.30;;;;;;;;;;4988727;28;20033;-69
2023/09/11 10:56:07;;;;;;;8.27;5.78;;;;;;;;;;4999817;28;20041;-69
2023/09/11 10:58:34;;;;;;;12.38;6.35;;;;;;;;;;4999923;28;20034;-69
2023/09/11 11:01:03;;;;;;;11.45;5.97;;;;;;;;;;4988289;28;20054;-69
2023/09/11 11:03:29;;;;;;;14.13;6.35;;;;;;;;;;4982139;28;20058;-69
2023/09/11 11:05:57;;;;;;;10.77;5.88;;;;;;;;;;4998295;28;20397;-69
2023/09/11 11:08:23;;;;;;;10.23;6.00;;;;;;;;;;4991708;28;20130;-68
2023/09/11 11:10:55;;;;;;;10.70;5.80;;;;;;;;;;4980403;28;20491;-68
2023/09/11 11:13:21;;;;;;;11.45;6.55;;;;;;;;;;4992970;28;20044;-68
2023/09/11 11:15:47;;;;;;;8.18;4.75;;;;;;;;;;4986617;28;20084;-68
2023/09/11 11:18:14;;;;;;;13.80;5.40;;;;;;;;;;4999487;28;20074;-68
2023/09/11 11:21:05;;;;;;;9.15;4.90;;;;;;;;;;4997309;28;20029;-68
2023/09/11 11:23:36;;;;;;;8.27;5.45;;;;;;;;;;4983541;28;20029;-68
2023/09/11 11:26:06;;;;;;;7.90;5.00;;;;;;;;;;4991919;28;20485;-68
2023/09/11 11:28:43;;;;;;;7.85;5.22;;;;;;;;;;4996931;28;20041;-68
2023/09/11 11:31:12;;;;;;;10.40;4.85;;;;;;;;;;4990569;28;20516;-68
2023/09/11 11:33:40;;;;;;;7.50;4.22;;;;;;;;;;4979422;28;20557;-68
2023/09/11 11:36:09;;;;;;;9.00;6.32;;;;;;;;;;4997366;28;20117;-68
2023/09/11 11:38:36;;;;;;;9.52;4.78;;;;;;;;;;4993206;28;20037;-68
2023/09/11 11:41:03;;;;;;;7.13;4.80;;;;;;;;;;4991304;28;20054;-68
2023/09/11 11:43:29;;;;;;;11.18;4.55;;;;;;;;;;4984511;28;20034;-68
2023/09/11 11:45:55;;;;;;;10.15;4.95;;;;;;;;;;4985758;28;20042;-68
2023/09/11 11:48:21;;;;;;;6.57;4.43;;;;;;;;;;4995883;28;20479;-68
2023/09/11 11:50:47;;;;;;;8.55;4.30;;;;;;;;;;4997804;28;20036;-68
2023/09/11 11:53:17;;;;;;;10.20;4.57;;;;;;;;;;4988922;28;20129;-68
2023/09/11 11:55:44;;;;;;;8.70;4.93;;;;;;;;;;4998605;28;20042;-68
2023/09/11 11:58:13;;;;;;;8.48;4.72;;;;;;;;;;4996191;28;20050;-68
2023/09/11 12:00:54;;;;;;;7.43;4.70;;;;;;;;;;4992037;28;20049;-68
2023/09/11 12:03:20;;;;;;;7.18;4.30;;;;;;;;;;4992021;28;20551;-68
2023/09/11 12:05:45;;;;;;;6.68;4.32;;;;;;;;;;4999943;28;20030;-68
2023/09/11 12:08:12;;;;;;;9.13;5.15;;;;;;;;;;4992594;28;20027;-68
2023/09/11 12:10:44;;;;;;;9.02;4.43;;;;;;;;;;5003173;28;20448;-68
2023/09/11 12:13:13;;;;;;;10.27;4.77;;;;;;;;;;4990050;28;20054;-69
2023/09/11 12:15:39;;;;;;;8.95;4.80;;;;;;;;;;4997109;28;20139;-68
2023/09/11 12:18:05;;;;;;;7.40;4.43;;;;;;;;;;4989729;28;20038;-68
2023/09/11 12:20:31;;;;;;;9.55;4.97;;;;;;;;;;4984628;28;20445;-69
2023/09/11 12:23:00;;;;;;;9.00;4.70;;;;;;;;;;4998386;28;20041;-68
2023/09/11 12:25:26;;;;;;;7.20;4.25;;;;;;;;;;4986239;28;20039;-69
2023/09/11 12:27:51;;;;;;;7.32;4.45;;;;;;;;;;4998578;28;20149;-69
2023/09/11 12:30:17;;;;;;;6.93;4.80;;;;;;;;;;4989363;28;20049;-69
2023/09/11 12:32:44;;;;;;;7.47;4.50;;;;;;;;;;4997723;28;20029;-69
2023/09/11 12:35:10;;;;;;;8.02;4.40;;;;;;;;;;4992593;28;20657;-69
2023/09/11 12:37:40;;;;;;;6.72;4.47;;;;;;;;;;4991732;28;20516;-69
2023/09/11 12:40:09;;;;;;;9.20;4.80;;;;;;;;;;4979896;28;20056;-68
2023/09/11 12:42:37;;;;;;;6.95;4.50;;;;;;;;;;4991806;28;20540;-69
2023/09/11 12:45:03;;;;;;;8.45;5.32;;;;;;;;;;4995760;28;20042;-69
2023/09/11 12:47:30;;;;;;;6.40;4.05;;;;;;;;;;4998630;28;20037;-68
2023/09/11 12:49:55;;;;;;;8.30;4.55;;;;;;;;;;4981728;28;20678;-69
2023/09/11 12:52:22;;;;;;;8.82;4.80;;;;;;;;;;4976595;28;20133;-68
2023/09/11 12:54:47;;;;;;;8.80;4.95;;;;;;;;;;4986727;28;20052;-68
2023/09/11 12:57:13;;;;;;;7.90;4.57;;;;;;;;;;4985512;28;20038;-68
2023/09/11 12:59:39;;;;;;;7.28;4.53;;;;;;;;;;4984356;28;20030;-69
2023/09/11 13:02:06;;;;;;;6.47;4.68;;;;;;;;;;4988250;28;20613;-68
2023/09/11 13:04:33;;;;;;;7.85;4.53;;;;;;;;;;4990585;28;20026;-69
2023/09/11 13:06:59;;;;;;;11.02;4.70;;;;;;;;;;5004084;28;20038;-70
2023/09/11 13:09:25;;;;;;;7.15;4.75;;;;;;;;;;4996492;28;20041;-69
2023/09/11 13:11:50;;;;;;;9.73;4.63;;;;;;;;;;4991163;28;20030;-69
2023/09/11 13:14:15;;;;;;;6.25;4.47;;;;;;;;;;4994854;28;20041;-69
2023/09/11 13:16:43;;;;;;;6.55;4.32;;;;;;;;;;4998673;28;20530;-69
2023/09/11 13:19:09;;;;;;;7.43;4.43;;;;;;;;;;4996858;28;20041;-69
2023/09/11 13:21:34;;;;;;;6.80;4.05;;;;;;;;;;4990740;28;20048;-69
2023/09/11 13:23:59;;;;;;;13.35;5.70;;;;;;;;;;4994927;28;20058;-69
2023/09/11 13:26:25;;;;;;;5.35;3.83;;;;;;;;;;4994241;28;20039;-69
2023/09/11 13:28:50;;;;;;;6.97;4.07;;;;;;;;;;4998619;28;20030;-69
2023/09/11 13:31:16;;;;;;;6.55;3.90;;;;;;;;;;4992300;28;20042;-69
2023/09/11 13:33:42;;;;;;;7.15;4.07;;;;;;;;;;5000108;28;20050;-69
2023/09/11 13:36:08;;;;;;;5.00;3.60;;;;;;;;;;5002302;28;20046;-69
2023/09/11 13:38:33;;;;;;;10.75;4.00;;;;;;;;;;4996740;28;20053;-69
2023/09/11 13:40:59;;;;;;;6.47;3.92;;;;;;;;;;4994580;28;20073;-69
2023/09/11 13:43:24;;;;;;;9.25;5.85;;;;;;;;;;5000594;28;20042;-70
2023/09/11 13:45:50;;;;;;;7.15;3.90;;;;;;;;;;5000645;28;20044;-69
2023/09/11 13:48:15;;;;;;;7.38;4.30;;;;;;;;;;5003571;28;20034;-69
2023/09/11 13:50:40;;;;;;;6.82;3.78;;;;;;;;;;5001793;28;20103;-69
2023/09/11 13:53:05;;;;;;;5.45;3.75;;;;;;;;;;4991061;28;20030;-69
2023/09/11 13:55:31;;;;;;;7.00;4.03;;;;;;;;;;5000464;28;20034;-69
2023/09/11 13:57:56;;;;;;;6.07;4.50;;;;;;;;;;4996884;28;20582;-69
2023/09/11 14:00:22;;;;;;;7.43;4.30;;;;;;;;;;4995084;28;20042;-69
2023/09/11 14:02:47;;;;;;;5.28;3.45;;;;;;;;;;4998255;28;20508;-69
2023/09/11 14:05:13;;;;;;;7.30;4.22;;;;;;;;;;5001652;28;20029;-69
2023/09/11 14:07:38;;;;;;;8.80;4.07;;;;;;;;;;4984634;28;20129;-69
2023/09/11 14:10:04;;;;;;;6.60;4.53;;;;;;;;;;5000104;28;20046;-69
2023/09/11 14:12:29;;;;;;;8.20;4.63;;;;;;;;;;4996073;28;20045;-69
2023/09/11 14:14:55;;;;;;;6.72;4.68;;;;;;;;;;4993232;28;20046;-69
2023/09/11 14:17:20;;;;;;;8.23;4.35;;;;;;;;;;4977166;28;20101;-68
2023/09/11 14:19:45;;;;;;;7.28;4.75;;;;;;;;;;4975661;28;20034;-69
2023/09/11 14:22:11;;;;;;;8.63;4.80;;;;;;;;;;4997623;28;20038;-69
2023/09/11 14:24:36;;;;;;;8.50;5.07;;;;;;;;;;4999482;28;20459;-69
2023/09/11 14:27:02;;;;;;;9.40;5.00;;;;;;;;;;4997094;28;20026;-69
2023/09/11 14:29:27;;;;;;;6.95;5.13;;;;;;;;;;4994946;28;20380;-69